METAR Data
IDs: Format: Raw Decoded Include TAF

Data at: 1526 UTC 27 Nov 2021

ETAR 271512Z 23003KT 9999 SCT011 BKN046 02/02 A2931 RMK AO2A SNE12 SLP938 $